Time;durP1;ratioP1;P1;durP2;ratioP2;P2;SDS_P1;SDS_P2;PMS_P1;PMS_P2;Temp;Humidity;BMP_temperature;BMP_pressure;BME280_temperature;BME280_humidity;BME280_pressure;Samples;Min_cycle;Max_cycle;Signal;HPM_P1;HPM_P2
2022/04/08 00:01:29;;;;;;;0.87;0.30;;;17.60;64.50;;;;;;5186184;28;20214;-67
2022/04/08 00:04:21;;;;;;;0.80;0.40;;;17.60;64.50;;;;;;5197703;28;20194;-65
2022/04/08 00:07:15;;;;;;;0.43;0.40;;;17.60;64.50;;;;;;5187280;28;20280;-66
2022/04/08 00:10:07;;;;;;;0.73;0.30;;;17.60;64.50;;;;;;5186557;28;20289;-66
2022/04/08 00:12:59;;;;;;;0.77;0.33;;;17.60;64.50;;;;;;5185962;28;20349;-66
2022/04/08 00:15:51;;;;;;;0.70;0.30;;;17.60;64.50;;;;;;5186131;28;20191;-65
2022/04/08 00:18:45;;;;;;;1.00;0.40;;;17.60;64.50;;;;;;5196216;28;20197;-66
2022/04/08 00:21:37;;;;;;;1.17;0.43;;;17.60;64.50;;;;;;5203705;28;20700;-66
2022/04/08 00:24:30;;;;;;;0.50;0.20;;;17.60;64.50;;;;;;5206637;28;20216;-66
2022/04/08 00:27:23;;;;;;;0.47;0.33;;;17.60;64.50;;;;;;5206952;28;20696;-66
2022/04/08 00:30:15;;;;;;;0.97;0.30;;;17.60;64.40;;;;;;5190121;28;20202;-66
2022/04/08 00:33:07;;;;;;;0.97;0.40;;;17.50;64.40;;;;;;5184785;28;20725;-66
2022/04/08 00:35:59;;;;;;;0.70;0.40;;;17.60;64.40;;;;;;5200783;28;20202;-66
2022/04/08 00:38:51;;;;;;;0.73;0.30;;;17.60;64.40;;;;;;5202836;28;20207;-65
2022/04/08 00:41:44;;;;;;;1.03;0.40;;;17.60;64.40;;;;;;5186575;28;20225;-66
2022/04/08 00:44:36;;;;;;;0.40;0.30;;;17.60;64.40;;;;;;5186787;28;20337;-66
2022/04/08 00:47:28;;;;;;;0.30;0.20;;;17.60;64.40;;;;;;5186860;28;20214;-66
2022/04/08 00:50:22;;;;;;;0.33;0.30;;;17.60;64.40;;;;;;5185270;28;20194;-66
2022/04/08 00:53:14;;;;;;;0.53;0.13;;;17.50;64.30;;;;;;5204580;28;20291;-66
2022/04/08 00:56:06;;;;;;;0.60;0.30;;;17.60;64.40;;;;;;5205915;28;20216;-66
2022/04/08 00:59:00;;;;;;;1.80;0.43;;;17.60;64.30;;;;;;5191212;28;20198;-66
2022/04/08 01:01:52;;;;;;;0.50;0.30;;;17.60;64.40;;;;;;5186493;28;20694;-66
2022/04/08 01:04:44;;;;;;;0.57;0.30;;;17.60;64.30;;;;;;5187536;28;20654;-66
2022/04/08 01:07:36;;;;;;;0.50;0.20;;;17.60;64.40;;;;;;5182633;28;20248;-66
2022/04/08 01:10:28;;;;;;;0.60;0.20;;;17.60;64.40;;;;;;5164897;28;20455;-66
2022/04/08 01:13:20;;;;;;;0.87;0.40;;;17.50;64.30;;;;;;5164317;28;20733;-66
2022/04/08 01:16:14;;;;;;;0.33;0.20;;;17.60;64.30;;;;;;5165295;28;20195;-66
2022/04/08 01:19:07;;;;;;;1.13;0.30;;;17.50;64.30;;;;;;5180520;28;20202;-66
2022/04/08 01:21:59;;;;;;;0.53;0.23;;;17.60;64.40;;;;;;5187504;28;20293;-67
2022/04/08 01:25:01;;;;;;;0.27;0.20;;;17.60;64.40;;;;;;5186986;28;20194;-65
2022/04/08 01:27:53;;;;;;;1.13;0.40;;;17.60;64.30;;;;;;5186341;28;20221;-66
2022/04/08 01:30:45;;;;;;;0.40;0.23;;;17.50;64.30;;;;;;5183950;28;20329;-67
2022/04/08 01:33:37;;;;;;;1.10;0.27;;;17.60;64.40;;;;;;5205531;23;20233;-67
2022/04/08 01:36:29;;;;;;;0.20;0.20;;;17.60;64.40;;;;;;5202709;28;20566;-67
2022/04/08 01:39:21;;;;;;;0.37;0.20;;;17.50;64.30;;;;;;5185171;28;20581;-67
2022/04/08 01:42:16;;;;;;;0.40;0.33;;;17.60;64.30;;;;;;5198045;28;20217;-66
2022/04/08 01:45:09;;;;;;;0.90;0.30;;;17.50;64.30;;;;;;5205083;28;20198;-67
2022/04/08 01:48:03;;;;;;;0.93;0.40;;;17.60;65.00;;;;;;5198381;28;20190;-66
2022/04/08 01:50:55;;;;;;;1.17;0.50;;;17.60;64.40;;;;;;5211483;28;20605;-66
2022/04/08 01:53:47;;;;;;;0.93;0.37;;;17.60;64.40;;;;;;5213422;28;20573;-67
2022/04/08 01:56:39;;;;;;;0.80;0.30;;;17.60;64.30;;;;;;5205445;28;20229;-67
2022/04/08 01:59:33;;;;;;;0.40;0.20;;;17.60;64.30;;;;;;5204815;28;20802;-67
2022/04/08 02:02:25;;;;;;;0.67;0.40;;;17.60;64.30;;;;;;5205014;28;20697;-67
2022/04/08 02:05:17;;;;;;;0.80;0.40;;;17.60;64.30;;;;;;5205222;28;20695;-66
2022/04/08 02:08:09;;;;;;;0.63;0.37;;;17.50;64.20;;;;;;5185379;28;20217;-67
2022/04/08 02:11:01;;;;;;;0.50;0.27;;;17.60;64.30;;;;;;5186027;28;20286;-66
2022/04/08 02:13:53;;;;;;;0.70;0.27;;;17.50;64.20;;;;;;5213311;28;20234;-67
2022/04/08 02:16:47;;;;;;;0.63;0.20;;;17.50;64.20;;;;;;5203879;28;20200;-67
2022/04/08 02:19:40;;;;;;;0.37;0.20;;;17.60;64.20;;;;;;5204346;28;20232;-67
2022/04/08 02:22:34;;;;;;;0.30;0.20;;;17.50;64.20;;;;;;5204642;28;20641;-67
2022/04/08 02:25:26;;;;;;;0.80;0.40;;;17.60;64.20;;;;;;5197443;28;20194;-67
2022/04/08 02:28:18;;;;;;;0.70;0.30;;;17.60;64.20;;;;;;5203761;28;20190;-66
2022/04/08 02:31:11;;;;;;;1.40;0.30;;;17.60;64.30;;;;;;5212313;28;20194;-66
2022/04/08 02:34:04;;;;;;;0.80;0.47;;;17.60;64.20;;;;;;5207171;28;20226;-67
2022/04/08 02:36:56;;;;;;;1.23;0.30;;;17.50;64.20;;;;;;5214258;28;20189;-66
2022/04/08 02:39:48;;;;;;;1.40;0.30;;;17.50;64.20;;;;;;5205287;28;20202;-66
2022/04/08 02:42:40;;;;;;;0.77;0.30;;;17.50;64.20;;;;;;5203717;28;20214;-66
2022/04/08 02:45:32;;;;;;;0.77;0.40;;;17.50;64.20;;;;;;5203897;28;20197;-66
2022/04/08 02:48:24;;;;;;;0.30;0.30;;;17.50;64.20;;;;;;5205685;28;20186;-66
2022/04/08 02:51:18;;;;;;;0.20;0.10;;;17.50;64.70;;;;;;5215842;28;20204;-66
2022/04/08 02:54:10;;;;;;;0.87;0.30;;;17.50;64.10;;;;;;5226022;28;20724;-67
2022/04/08 02:57:02;;;;;;;0.73;0.37;;;17.50;64.10;;;;;;5228706;28;20196;-67
2022/04/08 02:59:54;;;;;;;1.07;0.33;;;17.60;64.20;;;;;;5233403;28;20842;-66
2022/04/08 03:02:47;;;;;;;0.97;0.40;;;17.50;64.10;;;;;;5229468;28;20583;-67
2022/04/08 03:05:39;;;;;;;0.77;0.30;;;17.50;64.10;;;;;;5219968;28;20201;-67
2022/04/08 03:08:34;;;;;;;0.47;0.30;;;17.50;64.10;;;;;;5206194;28;20726;-67
2022/04/08 03:11:26;;;;;;;0.63;0.37;;;17.50;64.10;;;;;;5207143;28;20665;-67
2022/04/08 03:14:18;;;;;;;0.83;0.30;;;17.50;64.10;;;;;;5209319;28;20228;-66
2022/04/08 03:17:10;;;;;;;0.60;0.30;;;17.50;64.10;;;;;;5208597;28;20189;-66
2022/04/08 03:20:03;;;;;;;0.40;0.20;;;17.50;64.10;;;;;;5208217;28;20197;-66
2022/04/08 03:22:55;;;;;;;0.77;0.40;;;17.50;64.10;;;;;;5208123;28;20344;-66
2022/04/08 03:25:48;;;;;;;0.73;0.30;;;17.50;64.10;;;;;;5208795;28;20697;-67
2022/04/08 03:28:40;;;;;;;0.63;0.27;;;17.50;64.10;;;;;;5206638;28;20280;-67
2022/04/08 03:31:32;;;;;;;0.50;0.20;;;17.50;64.10;;;;;;5187567;28;20194;-67
2022/04/08 03:34:25;;;;;;;0.33;0.20;;;17.50;64.10;;;;;;5200317;28;20209;-66
2022/04/08 03:37:18;;;;;;;0.60;0.30;;;17.50;64.10;;;;;;5214487;28;20189;-67
2022/04/08 03:40:11;;;;;;;0.70;0.20;;;17.50;64.00;;;;;;5216646;28;20268;-66
2022/04/08 03:43:05;;;;;;;0.30;0.30;;;17.50;64.00;;;;;;5207981;28;20218;-67
2022/04/08 03:45:57;;;;;;;0.50;0.20;;;17.50;64.00;;;;;;5207801;28;20224;-66
2022/04/08 03:48:49;;;;;;;0.93;0.30;;;17.60;64.00;;;;;;5206767;28;20198;-67
2022/04/08 03:51:42;;;;;;;0.40;0.20;;;17.60;64.00;;;;;;5223394;28;20205;-67
2022/04/08 03:54:34;;;;;;;0.80;0.23;;;17.60;64.00;;;;;;5227200;28;20288;-67
2022/04/08 03:57:26;;;;;;;0.57;0.20;;;17.60;63.90;;;;;;5215001;28;20209;-67
2022/04/08 04:00:19;;;;;;;1.03;0.30;;;17.60;63.90;;;;;;5206071;28;20228;-67
2022/04/08 04:03:12;;;;;;;0.50;0.30;;;17.60;63.90;;;;;;5205627;28;20304;-66
2022/04/08 04:06:04;;;;;;;0.73;0.30;;;17.60;63.90;;;;;;5207283;28;20190;-67
2022/04/08 04:08:56;;;;;;;0.60;0.30;;;17.60;63.90;;;;;;5208017;28;20194;-67
2022/04/08 04:11:48;;;;;;;0.47;0.13;;;17.60;63.90;;;;;;5207661;28;20202;-67
2022/04/08 04:14:40;;;;;;;2.83;0.40;;;17.60;63.90;;;;;;5207666;28;20197;-67
2022/04/08 04:17:33;;;;;;;0.50;0.20;;;17.60;63.90;;;;;;5207220;28;20194;-67
2022/04/08 04:20:26;;;;;;;1.33;0.53;;;17.60;63.90;;;;;;5212919;28;20545;-67
2022/04/08 04:23:18;;;;;;;0.93;0.40;;;17.60;63.90;;;;;;5224038;28;20209;-66
2022/04/08 04:26:10;;;;;;;0.57;0.27;;;17.60;63.90;;;;;;5227266;28;20239;-67
2022/04/08 04:29:02;;;;;;;0.67;0.30;;;17.60;63.80;;;;;;5227425;28;20189;-67
2022/04/08 04:31:56;;;;;;;0.50;0.40;;;17.60;63.90;;;;;;5227320;28;20719;-66
2022/04/08 04:34:49;;;;;;;0.60;0.10;;;17.60;63.80;;;;;;5216880;28;20276;-67
2022/04/08 04:37:41;;;;;;;0.77;0.30;;;17.60;63.80;;;;;;5213412;28;20206;-67
2022/04/08 04:40:33;;;;;;;0.50;0.27;;;17.60;63.80;;;;;;5227864;28;20201;-67
2022/04/08 04:43:25;;;;;;;0.40;0.20;;;17.60;63.80;;;;;;5212177;28;20220;-67
2022/04/08 04:46:17;;;;;;;0.40;0.30;;;17.60;63.80;;;;;;5206584;28;20267;-67
2022/04/08 04:49:10;;;;;;;0.30;0.27;;;17.60;63.80;;;;;;5205277;28;20190;-66
2022/04/08 04:52:04;;;;;;;0.40;0.23;;;17.60;63.80;;;;;;5215199;28;20186;-66
2022/04/08 04:54:56;;;;;;;0.50;0.20;;;17.60;63.70;;;;;;5205846;28;20661;-67
2022/04/08 04:57:48;;;;;;;0.50;0.30;;;17.60;63.80;;;;;;5205614;28;20565;-67
2022/04/08 05:00:41;;;;;;;1.23;0.33;;;17.60;63.70;;;;;;5201292;28;20325;-67
2022/04/08 05:03:33;;;;;;;1.23;0.30;;;17.60;63.80;;;;;;5204662;28;20224;-67
2022/04/08 05:06:25;;;;;;;0.60;0.30;;;17.60;63.70;;;;;;5197532;28;20201;-67
2022/04/08 05:09:18;;;;;;;0.60;0.20;;;17.60;63.70;;;;;;5202527;28;20202;-67
2022/04/08 05:12:11;;;;;;;0.50;0.40;;;17.60;63.70;;;;;;5202490;28;20768;-67
2022/04/08 05:15:03;;;;;;;0.60;0.20;;;17.60;63.70;;;;;;5203633;28;20194;-65
2022/04/08 05:17:57;;;;;;;0.60;0.20;;;17.60;63.80;;;;;;5203130;28;20205;-67
2022/04/08 05:20:52;;;;;;;0.60;0.30;;;17.60;63.70;;;;;;5210260;28;20808;-67
2022/04/08 05:23:44;;;;;;;0.87;0.20;;;17.60;63.70;;;;;;5220669;28;20216;-67
2022/04/08 05:26:37;;;;;;;0.60;0.40;;;17.60;63.70;;;;;;5223387;28;20204;-67
2022/04/08 05:29:30;;;;;;;0.70;0.40;;;17.60;63.70;;;;;;5223931;28;20692;-67
2022/04/08 05:32:22;;;;;;;1.33;0.50;;;17.60;63.70;;;;;;5218600;28;20236;-68
2022/04/08 05:35:15;;;;;;;0.77;0.20;;;17.60;63.70;;;;;;5200731;28;20198;-67
2022/04/08 05:38:07;;;;;;;1.03;0.40;;;17.60;63.70;;;;;;5201849;28;20198;-67
2022/04/08 05:40:59;;;;;;;0.43;0.30;;;17.60;63.70;;;;;;5203448;28;20324;-68
2022/04/08 05:43:54;;;;;;;0.30;0.30;;;17.60;63.70;;;;;;5203055;28;20218;-67
2022/04/08 05:46:46;;;;;;;2.23;0.50;;;17.60;63.70;;;;;;5203174;28;20202;-68
2022/04/08 05:49:38;;;;;;;0.77;0.30;;;17.60;63.70;;;;;;5201291;28;20198;-67
2022/04/08 05:52:30;;;;;;;0.87;0.33;;;17.60;63.70;;;;;;5222600;28;20221;-67
2022/04/08 05:55:23;;;;;;;0.67;0.20;;;17.60;63.70;;;;;;5223601;28;20554;-67
2022/04/08 05:58:15;;;;;;;0.47;0.37;;;17.50;63.70;;;;;;5222749;28;20200;-67
2022/04/08 06:01:08;;;;;;;1.37;0.40;;;17.60;63.70;;;;;;5221183;28;20197;-67
2022/04/08 06:04:00;;;;;;;0.63;0.30;;;17.60;63.70;;;;;;5210067;28;20589;-67
2022/04/08 06:06:54;;;;;;;0.73;0.30;;;17.60;63.70;;;;;;5203645;28;20208;-67
2022/04/08 06:09:46;;;;;;;0.83;0.40;;;17.60;63.70;;;;;;5203817;28;20240;-67
2022/04/08 06:12:38;;;;;;;1.03;0.30;;;17.60;63.70;;;;;;5208014;28;20217;-67
2022/04/08 06:15:31;;;;;;;0.30;0.17;;;17.60;63.70;;;;;;5211639;28;20209;-66
2022/04/08 06:18:25;;;;;;;0.30;0.20;;;17.50;63.60;;;;;;5204823;28;20669;-67
2022/04/08 06:21:17;;;;;;;0.60;0.33;;;17.60;63.70;;;;;;5216928;28;20276;-67
2022/04/08 06:24:09;;;;;;;0.93;0.20;;;17.50;63.60;;;;;;5221628;28;20259;-68
2022/04/08 06:27:01;;;;;;;0.50;0.30;;;17.60;63.70;;;;;;5222157;28;20211;-66
2022/04/08 06:29:54;;;;;;;0.80;0.30;;;17.60;63.70;;;;;;5203257;28;20198;-67
2022/04/08 06:32:46;;;;;;;0.60;0.30;;;17.50;63.60;;;;;;5202175;28;20267;-67
2022/04/08 06:35:39;;;;;;;0.70;0.40;;;17.60;63.70;;;;;;5203692;28;20255;-67
2022/04/08 06:38:31;;;;;;;0.30;0.10;;;17.60;63.60;;;;;;5205786;28;20201;-67
2022/04/08 06:41:23;;;;;;;1.00;0.40;;;17.60;63.60;;;;;;5216568;28;20623;-67
2022/04/08 06:44:15;;;;;;;1.43;0.47;;;17.60;63.60;;;;;;5222970;28;20323;-67
2022/04/08 06:47:08;;;;;;;0.60;0.20;;;17.60;63.60;;;;;;5222709;28;20580;-67
2022/04/08 06:50:00;;;;;;;0.53;0.30;;;17.60;63.60;;;;;;5206431;28;20696;-67
2022/04/08 06:52:59;;;;;;;0.73;0.30;;;17.60;63.60;;;;;;5222512;28;20217;-67
2022/04/08 06:55:51;;;;;;;0.63;0.30;;;17.50;63.50;;;;;;5223631;28;20194;-67
2022/04/08 06:58:43;;;;;;;0.57;0.40;;;17.60;63.50;;;;;;5202838;28;20296;-67
2022/04/08 07:01:35;;;;;;;0.63;0.20;;;17.60;63.50;;;;;;5203433;28;20669;-67
2022/04/08 07:04:27;;;;;;;0.50;0.30;;;17.60;63.50;;;;;;5203436;28;20331;-67
2022/04/08 07:07:20;;;;;;;0.63;0.30;;;17.60;63.50;;;;;;5201357;28;20217;-67
2022/04/08 07:10:14;;;;;;;1.07;0.40;;;17.60;63.50;;;;;;5202668;28;20194;-67
2022/04/08 07:13:06;;;;;;;0.57;0.20;;;17.60;63.50;;;;;;5202513;28;20224;-67
2022/04/08 07:15:59;;;;;;;1.50;0.43;;;17.60;63.50;;;;;;5201965;28;20193;-66
2022/04/08 07:18:51;;;;;;;0.93;0.30;;;17.60;63.50;;;;;;5201380;28;20861;-67
2022/04/08 07:21:43;;;;;;;0.30;0.30;;;17.60;63.50;;;;;;5202871;28;20204;-68
2022/04/08 07:24:35;;;;;;;0.20;0.20;;;17.60;63.50;;;;;;5203084;28;20283;-67
2022/04/08 07:27:28;;;;;;;2.20;0.30;;;17.60;63.50;;;;;;5202682;28;20218;-67
2022/04/08 07:30:22;;;;;;;0.70;0.40;;;17.60;63.50;;;;;;5203312;28;20629;-67
2022/04/08 07:33:14;;;;;;;0.40;0.30;;;17.60;63.50;;;;;;5200901;28;20304;-67
2022/04/08 07:36:06;;;;;;;0.70;0.40;;;17.60;63.50;;;;;;5203644;28;20263;-67
2022/04/08 07:38:58;;;;;;;1.20;0.30;;;17.60;63.50;;;;;;5197866;28;20192;-66
2022/04/08 07:41:50;;;;;;;1.00;0.40;;;17.60;63.50;;;;;;5212543;28;20863;-67
2022/04/08 07:44:44;;;;;;;0.63;0.27;;;17.60;63.50;;;;;;5223001;28;20732;-67
2022/04/08 07:47:36;;;;;;;1.07;0.33;;;17.60;63.40;;;;;;5223091;28;20212;-67
2022/04/08 07:50:29;;;;;;;0.60;0.30;;;17.60;63.40;;;;;;5217069;28;20198;-67
2022/04/08 07:53:21;;;;;;;0.40;0.20;;;17.60;63.40;;;;;;5200874;28;20861;-67
2022/04/08 07:56:13;;;;;;;1.83;0.43;;;17.60;63.40;;;;;;5201447;28;20186;-66
2022/04/08 07:59:06;;;;;;;0.63;0.30;;;17.60;63.40;;;;;;5205815;28;20194;-67
2022/04/08 08:01:59;;;;;;;0.40;0.30;;;17.60;63.40;;;;;;5206222;28;20584;-66
2022/04/08 08:04:51;;;;;;;0.87;0.30;;;17.60;63.40;;;;;;5204416;28;20220;-66
2022/04/08 08:07:45;;;;;;;0.73;0.37;;;17.60;63.40;;;;;;5206005;28;20799;-67
2022/04/08 08:10:38;;;;;;;0.83;0.40;;;17.60;63.40;;;;;;5212611;28;20505;-68
2022/04/08 08:13:31;;;;;;;0.50;0.13;;;17.60;63.20;;;;;;5209185;28;20245;-68
2022/04/08 08:16:23;;;;;;;0.93;0.37;;;17.60;63.20;;;;;;5210071;28;20216;-68
2022/04/08 08:19:16;;;;;;;0.47;0.30;;;17.60;63.30;;;;;;5198776;28;20202;-68
2022/04/08 08:22:08;;;;;;;0.57;0.33;;;17.60;63.30;;;;;;5201028;28;20190;-68
2022/04/08 08:25:01;;;;;;;0.90;0.40;;;17.60;63.30;;;;;;5215983;28;20243;-68
2022/04/08 08:27:54;;;;;;;1.60;0.47;;;17.60;63.30;;;;;;5199037;28;20502;-68
2022/04/08 08:30:47;;;;;;;0.43;0.30;;;17.60;63.40;;;;;;5200159;28;20202;-69
2022/04/08 08:33:40;;;;;;;0.30;0.30;;;17.60;63.40;;;;;;5183260;28;20226;-68
2022/04/08 08:36:33;;;;;;;1.23;0.70;;;17.60;63.40;;;;;;5200295;28;20194;-68
2022/04/08 08:39:25;;;;;;;1.33;0.50;;;17.60;63.40;;;;;;5211317;28;20280;-68
2022/04/08 08:42:18;;;;;;;2.03;0.50;;;17.60;63.40;;;;;;5192732;28;20232;-66
2022/04/08 08:45:13;;;;;;;1.00;0.50;;;17.60;63.40;;;;;;5220018;28;20550;-66
2022/04/08 08:48:05;;;;;;;0.87;0.40;;;17.60;63.50;;;;;;5222336;28;20847;-67
2022/04/08 08:51:02;;;;;;;0.70;0.33;;;17.60;63.50;;;;;;5212276;28;20580;-67
2022/04/08 08:53:55;;;;;;;1.33;0.50;;;17.60;63.40;;;;;;5203042;28;20214;-66
2022/04/08 08:56:48;;;;;;;0.80;0.47;;;17.60;63.40;;;;;;5193575;28;20205;-66
2022/04/08 08:59:40;;;;;;;2.03;0.50;;;17.60;63.40;;;;;;5205548;28;20661;-66
2022/04/08 09:02:32;;;;;;;1.40;0.40;;;17.60;63.50;;;;;;5201859;28;20214;-66
2022/04/08 09:05:25;;;;;;;0.30;0.30;;;17.60;63.50;;;;;;5214030;28;20200;-66
2022/04/08 09:08:17;;;;;;;0.50;0.30;;;17.60;63.50;;;;;;5204076;28;20220;-67
2022/04/08 09:11:11;;;;;;;1.00;0.40;;;17.60;63.50;;;;;;5200862;28;20198;-66
2022/04/08 09:14:05;;;;;;;2.07;0.50;;;17.60;63.50;;;;;;5193601;28;20209;-67
2022/04/08 09:17:01;;;;;;;0.93;0.30;;;17.60;63.50;;;;;;5197260;28;20209;-67
2022/04/08 09:19:55;;;;;;;0.97;0.40;;;17.60;63.50;;;;;;5201865;28;20197;-67
2022/04/08 09:22:55;;;;;;;0.57;0.30;;;17.60;63.50;;;;;;5201490;28;20655;-66
2022/04/08 09:25:48;;;;;;;1.50;0.43;;;17.60;63.60;;;;;;5201867;28;20193;-66
2022/04/08 09:28:41;;;;;;;1.13;0.40;;;17.60;63.60;;;;;;5201269;28;20206;-67
2022/04/08 09:31:34;;;;;;;1.40;0.50;;;17.60;63.60;;;;;;5201568;28;20194;-66
2022/04/08 09:34:26;;;;;;;0.57;0.40;;;17.60;63.60;;;;;;5201820;28;20720;-66
2022/04/08 09:37:18;;;;;;;1.87;0.47;;;17.60;63.60;;;;;;5202081;28;20208;-66
2022/04/08 09:40:12;;;;;;;2.00;0.40;;;17.60;63.60;;;;;;5206622;28;20197;-66
2022/04/08 09:43:04;;;;;;;1.30;0.30;;;17.60;63.60;;;;;;5208719;28;20275;-67
2022/04/08 09:46:13;;;;;;;0.87;0.40;;;17.70;63.70;;;;;;5200414;28;20753;-65
2022/04/08 09:49:06;;;;;;;1.73;0.37;;;17.60;63.70;;;;;;5200895;28;20218;-65
2022/04/08 09:52:02;;;;;;;0.67;0.37;;;17.60;63.70;;;;;;5218865;28;20193;-65
2022/04/08 09:54:56;;;;;;;1.07;0.30;;;17.60;63.70;;;;;;5213269;28;20255;-66
2022/04/08 09:57:51;;;;;;;0.67;0.47;;;17.60;63.70;;;;;;5200095;28;20202;-66
2022/04/08 10:00:44;;;;;;;0.90;0.50;;;17.60;63.70;;;;;;5200057;28;20247;-66
2022/04/08 10:03:39;;;;;;;0.43;0.37;;;17.60;63.70;;;;;;5203174;28;20251;-67
2022/04/08 10:06:31;;;;;;;1.43;0.40;;;17.70;63.80;;;;;;5211640;28;20280;-67
2022/04/08 10:09:26;;;;;;;0.80;0.40;;;17.60;63.80;;;;;;5204122;28;20252;-68
2022/04/08 10:12:28;;;;;;;0.60;0.50;;;17.60;63.80;;;;;;5203796;28;20426;-67
2022/04/08 10:15:30;;;;;;;0.90;0.30;;;17.70;63.40;;;;;;5204057;28;20197;-68
2022/04/08 10:18:32;;;;;;;0.60;0.50;;;17.70;63.50;;;;;;5203811;28;20189;-67
2022/04/08 10:21:36;;;;;;;0.93;0.43;;;17.70;63.40;;;;;;5202134;28;20189;-67
2022/04/08 10:24:30;;;;;;;0.77;0.30;;;17.60;63.30;;;;;;5201901;28;20197;-67
2022/04/08 10:27:30;;;;;;;0.73;0.30;;;17.60;63.70;;;;;;5202321;28;20189;-67
2022/04/08 10:30:23;;;;;;;1.40;0.53;;;17.70;63.70;;;;;;5203600;28;20210;-68
2022/04/08 10:33:25;;;;;;;1.47;0.60;;;17.60;63.70;;;;;;5201942;28;20744;-68
2022/04/08 10:36:17;;;;;;;2.10;0.77;;;17.60;63.80;;;;;;5207158;28;20197;-67
2022/04/08 10:39:15;;;;;;;1.70;0.50;;;17.60;63.80;;;;;;5191795;28;20595;-69
2022/04/08 10:42:08;;;;;;;0.57;0.37;;;17.60;63.80;;;;;;5203602;28;20669;-67
2022/04/08 10:45:12;;;;;;;1.20;0.77;;;17.60;63.80;;;;;;5203064;28;20205;-68
2022/04/08 10:48:14;;;;;;;2.43;0.70;;;17.70;63.80;;;;;;5202001;28;20280;-69
2022/04/08 10:51:09;;;;;;;2.10;0.70;;;17.60;63.70;;;;;;5213227;28;20572;-68
2022/04/08 10:54:05;;;;;;;2.17;0.50;;;17.60;63.70;;;;;;5222889;28;20300;-68
2022/04/08 10:56:59;;;;;;;1.60;0.77;;;17.70;63.70;;;;;;5210225;28;20216;-67
2022/04/08 10:59:53;;;;;;;1.33;0.53;;;17.70;63.70;;;;;;5202344;28;20190;-68
2022/04/08 11:02:47;;;;;;;2.40;0.77;;;17.60;63.70;;;;;;5201624;28;20263;-68
2022/04/08 11:05:40;;;;;;;2.87;0.97;;;17.70;63.70;;;;;;5202303;28;20201;-68
2022/04/08 11:08:34;;;;;;;2.13;0.80;;;17.70;63.70;;;;;;5201408;28;20366;-68
2022/04/08 11:11:29;;;;;;;1.97;0.90;;;17.70;63.70;;;;;;5201350;28;20197;-68
2022/04/08 11:14:23;;;;;;;5.13;0.90;;;17.60;63.70;;;;;;5216617;28;20221;-67
2022/04/08 11:17:15;;;;;;;3.17;1.23;;;17.60;63.70;;;;;;5221976;28;20283;-68
2022/04/08 11:20:10;;;;;;;4.93;1.40;;;17.60;63.70;;;;;;5200799;28;20224;-68
2022/04/08 11:23:02;;;;;;;3.40;1.20;;;17.60;63.60;;;;;;5199494;28;20228;-68
2022/04/08 11:25:54;;;;;;;4.30;1.40;;;17.60;63.70;;;;;;5202547;28;20197;-68
2022/04/08 11:28:47;;;;;;;5.53;1.70;;;17.60;63.60;;;;;;5200975;28;20472;-67
2022/04/08 11:31:40;;;;;;;2.63;1.30;;;17.60;63.60;;;;;;5202667;28;20189;-66
2022/04/08 11:34:33;;;;;;;5.70;1.60;;;17.70;63.60;;;;;;5206045;28;20276;-67
2022/04/08 11:37:27;;;;;;;3.23;1.20;;;17.70;63.60;;;;;;5205247;28;20197;-66
2022/04/08 11:40:19;;;;;;;5.53;1.37;;;17.70;63.60;;;;;;5205927;28;20185;-66
2022/04/08 11:43:13;;;;;;;6.43;1.70;;;17.70;63.70;;;;;;5204498;28;20244;-66
2022/04/08 11:46:14;;;;;;;2.93;1.20;;;17.70;63.70;;;;;;5205787;28;20202;-67
2022/04/08 11:49:12;;;;;;;4.00;1.63;;;17.60;63.70;;;;;;5205737;28;20611;-66
2022/04/08 11:52:06;;;;;;;4.77;1.67;;;17.70;63.70;;;;;;5224647;28;20198;-65
2022/04/08 11:55:04;;;;;;;4.37;1.57;;;17.70;63.70;;;;;;5221804;28;20652;-66
2022/04/08 11:57:56;;;;;;;3.40;1.53;;;17.60;63.70;;;;;;5204572;28;20197;-66
2022/04/08 12:00:49;;;;;;;3.37;1.43;;;17.60;63.70;;;;;;5209296;28;20684;-66
2022/04/08 12:03:42;;;;;;;4.50;1.33;;;17.60;64.30;;;;;;5226819;28;20814;-65
2022/04/08 12:06:39;;;;;;;4.33;1.63;;;17.60;63.70;;;;;;5226962;28;20204;-66
2022/04/08 12:09:31;;;;;;;3.83;1.30;;;17.60;63.80;;;;;;5226424;28;20292;-66
2022/04/08 12:12:24;;;;;;;3.07;1.20;;;17.60;63.80;;;;;;5211505;28;20216;-67
2022/04/08 12:15:20;;;;;;;5.03;1.30;;;17.60;63.90;;;;;;5205700;28;20194;-67
2022/04/08 12:18:12;;;;;;;4.23;1.63;;;17.60;63.90;;;;;;5184626;28;20195;-66
2022/04/08 12:21:06;;;;;;;2.37;1.20;;;17.60;63.90;;;;;;5191221;28;20224;-67
2022/04/08 12:24:02;;;;;;;4.97;1.50;;;17.60;63.90;;;;;;5204731;28;20272;-67
2022/04/08 12:26:54;;;;;;;3.53;1.60;;;17.60;63.90;;;;;;5204548;28;20287;-67
2022/04/08 12:29:57;;;;;;;4.03;1.60;;;17.60;63.80;;;;;;5205105;28;20217;-66
2022/04/08 12:32:50;;;;;;;3.33;1.27;;;17.60;63.80;;;;;;5203471;28;20221;-66
2022/04/08 12:35:42;;;;;;;4.17;1.60;;;17.60;63.70;;;;;;5213096;28;20686;-67
2022/04/08 12:38:34;;;;;;;4.40;1.50;;;17.70;63.80;;;;;;5220428;28;20193;-67
2022/04/08 12:41:27;;;;;;;3.43;1.30;;;17.60;63.80;;;;;;5225236;28;20193;-66
2022/04/08 12:44:21;;;;;;;4.23;1.30;;;17.60;63.80;;;;;;5213960;28;20233;-67
2022/04/08 12:47:13;;;;;;;4.57;1.37;;;17.60;63.80;;;;;;5204798;28;20205;-67
2022/04/08 12:50:07;;;;;;;2.73;1.10;;;17.60;63.70;;;;;;5206238;28;20778;-66
2022/04/08 12:53:00;;;;;;;5.43;1.43;;;17.60;63.70;;;;;;5224736;28;20302;-65
2022/04/08 12:55:52;;;;;;;3.92;1.48;;;17.70;63.70;;;;;;5224441;28;21112;-64
2022/04/08 12:58:46;;;;;;;3.63;1.30;;;17.70;63.30;;;;;;5218288;28;20198;-63
2022/04/08 13:01:38;;;;;;;4.53;1.40;;;17.70;63.40;;;;;;5203717;28;20331;-63
2022/04/08 13:04:30;;;;;;;4.87;1.57;;;17.70;63.50;;;;;;5192924;28;20291;-64
2022/04/08 13:07:22;;;;;;;4.57;1.50;;;17.70;63.50;;;;;;5204642;28;20190;-64
2022/04/08 13:10:14;;;;;;;6.00;1.60;;;17.70;63.60;;;;;;5204702;28;20216;-63
2022/04/08 13:13:06;;;;;;;3.73;1.00;;;17.70;63.60;;;;;;5211230;28;20218;-64
2022/04/08 13:16:00;;;;;;;3.17;1.40;;;17.70;63.60;;;;;;5224100;28;20200;-63
2022/04/08 13:18:52;;;;;;;5.17;1.40;;;17.70;63.70;;;;;;5215310;28;20200;-64
2022/04/08 13:21:45;;;;;;;5.28;1.52;;;17.70;63.70;;;;;;5211195;28;20428;-65
2022/04/08 13:24:37;;;;;;;4.35;1.30;;;17.70;63.80;;;;;;5203715;28;20417;-63
2022/04/08 13:27:29;;;;;;;2.90;1.20;;;17.80;63.70;;;;;;5201838;28;20197;-63
2022/04/08 13:30:21;;;;;;;4.33;1.07;;;17.70;63.60;;;;;;5214889;28;20212;-65
2022/04/08 13:33:15;;;;;;;13.07;1.40;;;17.70;63.70;;;;;;5202391;28;20221;-63
2022/04/08 13:36:07;;;;;;;3.37;1.20;;;17.70;63.80;;;;;;5205056;28;20691;-63
2022/04/08 13:38:59;;;;;;;3.07;1.10;;;17.70;64.10;;;;;;5203514;28;20221;-63
2022/04/08 13:41:52;;;;;;;2.80;1.10;;;17.70;63.90;;;;;;5204255;28;20198;-62
2022/04/08 13:44:44;;;;;;;2.90;1.13;;;17.60;64.00;;;;;;5203971;28;20290;-63
2022/04/08 13:47:36;;;;;;;3.27;1.20;;;17.70;64.10;;;;;;5210323;28;20197;-63
2022/04/08 13:50:30;;;;;;;3.57;1.10;;;17.70;64.10;;;;;;5223702;28;20216;-63
2022/04/08 13:53:23;;;;;;;3.07;1.30;;;17.60;64.10;;;;;;5213299;28;20286;-63
2022/04/08 13:56:16;;;;;;;2.63;1.30;;;17.60;64.10;;;;;;5202494;28;20200;-63
2022/04/08 13:59:08;;;;;;;1.30;0.80;;;17.60;64.20;;;;;;5202214;28;20198;-64
2022/04/08 14:02:00;;;;;;;3.37;1.07;;;17.60;64.20;;;;;;5202176;28;20243;-63
2022/04/08 14:04:52;;;;;;;4.60;1.13;;;17.60;64.20;;;;;;5203125;28;20275;-63
2022/04/08 14:07:46;;;;;;;3.93;1.20;;;17.60;64.20;;;;;;5200999;28;20196;-63
2022/04/08 14:10:38;;;;;;;2.80;1.23;;;17.60;64.30;;;;;;5201457;28;20226;-63
2022/04/08 14:13:30;;;;;;;1.57;0.90;;;17.60;64.40;;;;;;5202458;28;20217;-63
2022/04/08 14:16:22;;;;;;;2.67;1.10;;;17.60;64.40;;;;;;5199801;28;20327;-63
2022/04/08 14:19:14;;;;;;;3.30;1.10;;;17.60;64.40;;;;;;5182364;28;20201;-63
2022/04/08 14:22:07;;;;;;;2.23;0.90;;;17.60;64.40;;;;;;5182555;28;20198;-62
2022/04/08 14:25:00;;;;;;;3.80;1.00;;;17.60;64.40;;;;;;5182237;28;20194;-64
2022/04/08 14:27:52;;;;;;;3.20;0.70;;;17.60;64.40;;;;;;5196502;28;20204;-63
2022/04/08 14:30:44;;;;;;;2.33;0.87;;;17.60;64.40;;;;;;5199989;28;20597;-64
2022/04/08 14:33:38;;;;;;;1.30;0.77;;;17.70;64.40;;;;;;5203187;28;20217;-63
2022/04/08 14:36:30;;;;;;;2.60;1.00;;;17.60;64.40;;;;;;5203221;28;20190;-64
2022/04/08 14:39:22;;;;;;;1.67;0.80;;;17.70;64.40;;;;;;5200413;28;20198;-64
2022/04/08 14:42:16;;;;;;;2.90;0.87;;;17.60;64.40;;;;;;5201972;28;20194;-64
2022/04/08 14:45:09;;;;;;;1.47;0.73;;;17.60;64.40;;;;;;5201645;28;20208;-65
2022/04/08 14:48:01;;;;;;;1.73;0.90;;;17.60;64.50;;;;;;5203033;28;20653;-65
2022/04/08 14:50:53;;;;;;;3.53;0.90;;;17.60;64.40;;;;;;5205972;28;20218;-64
2022/04/08 14:53:45;;;;;;;1.17;0.63;;;17.60;64.40;;;;;;5205189;28;20279;-64
2022/04/08 14:56:37;;;;;;;1.50;0.70;;;17.70;64.40;;;;;;5202683;28;20406;-64
2022/04/08 14:59:31;;;;;;;3.73;1.03;;;17.70;64.40;;;;;;5201755;28;20198;-64
2022/04/08 15:02:23;;;;;;;2.43;0.93;;;17.70;64.40;;;;;;5200876;28;20214;-65